sensor_id;sensor_type;location;lat;lon;timestamp;temperature;humidity
46378;DHT22;32083;47.360;9.650;2023-08-30T04:02:49;12.90;99.90
46378;DHT22;32083;47.360;9.650;2023-08-30T04:05:15;13.00;99.90
46378;DHT22;32083;47.360;9.650;2023-08-30T04:07:41;12.90;99.90
46378;DHT22;32083;47.360;9.650;2023-08-30T04:10:07;13.00;99.90
46378;DHT22;32083;47.360;9.650;2023-08-30T04:12:34;12.90;99.90
46378;DHT22;32083;47.360;9.650;2023-08-30T04:15:01;13.00;99.90
46378;DHT22;32083;47.360;9.650;2023-08-30T04:17:27;13.10;99.90
46378;DHT22;32083;47.360;9.650;2023-08-30T04:19:53;13.10;99.90
46378;DHT22;32083;47.360;9.650;2023-08-30T04:22:19;13.10;99.90
46378;DHT22;32083;47.360;9.650;2023-08-30T04:24:49;13.10;99.90
46378;DHT22;32083;47.360;9.650;2023-08-30T04:27:15;13.10;99.90
46378;DHT22;32083;47.360;9.650;2023-08-30T04:29:41;13.10;99.90
46378;DHT22;32083;47.360;9.650;2023-08-30T04:32:10;13.10;99.90
46378;DHT22;32083;47.360;9.650;2023-08-30T04:34:37;13.10;99.90
46378;DHT22;32083;47.360;9.650;2023-08-30T04:37:03;13.00;99.90
46378;DHT22;32083;47.360;9.650;2023-08-30T04:39:29;13.10;99.90
46378;DHT22;32083;47.360;9.650;2023-08-30T04:41:55;13.00;99.90
46378;DHT22;32083;47.360;9.650;2023-08-30T04:44:22;13.00;99.90
46378;DHT22;32083;47.360;9.650;2023-08-30T04:46:50;13.00;99.90
46378;DHT22;32083;47.360;9.650;2023-08-30T04:49:17;13.00;99.90
46378;DHT22;32083;47.360;9.650;2023-08-30T04:51:43;13.00;99.90
46378;DHT22;32083;47.360;9.650;2023-08-30T04:54:09;13.00;99.90
46378;DHT22;32083;47.360;9.650;2023-08-30T04:56:35;13.00;99.90
46378;DHT22;32083;47.360;9.650;2023-08-30T04:59:01;13.10;99.90
46378;DHT22;32083;47.360;9.650;2023-08-30T05:01:30;13.10;99.90
46378;DHT22;32083;47.360;9.650;2023-08-30T05:03:56;13.10;99.90
46378;DHT22;32083;47.360;9.650;2023-08-30T05:06:22;13.10;99.90
46378;DHT22;32083;47.360;9.650;2023-08-30T05:08:48;13.20;99.90
46378;DHT22;32083;47.360;9.650;2023-08-30T05:11:14;13.10;99.90
46378;DHT22;32083;47.360;9.650;2023-08-30T05:13:41;13.20;99.90
46378;DHT22;32083;47.360;9.650;2023-08-30T05:16:07;13.20;99.90
46378;DHT22;32083;47.360;9.650;2023-08-30T05:18:33;13.20;99.90
46378;DHT22;32083;47.360;9.650;2023-08-30T05:20:59;13.20;99.90
46378;DHT22;32083;47.360;9.650;2023-08-30T05:23:25;13.10;99.90
46378;DHT22;32083;47.360;9.650;2023-08-30T05:25:50;13.10;99.90
46378;DHT22;32083;47.360;9.650;2023-08-30T05:28:16;13.10;99.90
46378;DHT22;32083;47.360;9.650;2023-08-30T05:30:44;13.10;99.90
46378;DHT22;32083;47.360;9.650;2023-08-30T05:33:10;13.10;99.90
46378;DHT22;32083;47.360;9.650;2023-08-30T05:35:36;13.10;99.90
46378;DHT22;32083;47.360;9.650;2023-08-30T05:38:02;13.20;99.90
46378;DHT22;32083;47.360;9.650;2023-08-30T05:40:28;13.20;99.90
46378;DHT22;32083;47.360;9.650;2023-08-30T05:42:54;13.20;99.90
46378;DHT22;32083;47.360;9.650;2023-08-30T05:45:20;13.30;99.90
46378;DHT22;32083;47.360;9.650;2023-08-30T05:47:46;13.30;99.90
46378;DHT22;32083;47.360;9.650;2023-08-30T05:50:13;13.30;99.90
46378;DHT22;32083;47.360;9.650;2023-08-30T05:52:39;13.30;99.90
46378;DHT22;32083;47.360;9.650;2023-08-30T05:55:10;13.40;99.90
46378;DHT22;32083;47.360;9.650;2023-08-30T05:57:36;13.40;99.90
46378;DHT22;32083;47.360;9.650;2023-08-30T06:00:03;13.40;99.90
46378;DHT22;32083;47.360;9.650;2023-08-30T06:02:33;13.40;99.90
46378;DHT22;32083;47.360;9.650;2023-08-30T06:04:59;13.50;99.90
46378;DHT22;32083;47.360;9.650;2023-08-30T06:07:25;13.40;99.90
46378;DHT22;32083;47.360;9.650;2023-08-30T06:09:51;13.50;99.90
46378;DHT22;32083;47.360;9.650;2023-08-30T06:12:17;13.50;99.90
46378;DHT22;32083;47.360;9.650;2023-08-30T06:14:44;13.50;99.90
46378;DHT22;32083;47.360;9.650;2023-08-30T06:17:15;13.60;99.90
46378;DHT22;32083;47.360;9.650;2023-08-30T06:19:42;13.60;99.90
46378;DHT22;32083;47.360;9.650;2023-08-30T06:22:08;13.60;99.90
46378;DHT22;32083;47.360;9.650;2023-08-30T06:24:34;13.60;99.90
46378;DHT22;32083;47.360;9.650;2023-08-30T06:26:59;13.70;99.90
46378;DHT22;32083;47.360;9.650;2023-08-30T06:29:25;13.70;99.90
46378;DHT22;32083;47.360;9.650;2023-08-30T06:31:51;13.80;99.90
46378;DHT22;32083;47.360;9.650;2023-08-30T06:34:18;13.80;99.90
46378;DHT22;32083;47.360;9.650;2023-08-30T06:36:44;14.00;99.90
46378;DHT22;32083;47.360;9.650;2023-08-30T06:39:09;14.00;99.90
46378;DHT22;32083;47.360;9.650;2023-08-30T06:41:35;14.10;99.90
46378;DHT22;32083;47.360;9.650;2023-08-30T06:44:01;14.20;99.90
46378;DHT22;32083;47.360;9.650;2023-08-30T06:46:27;14.20;99.90
46378;DHT22;32083;47.360;9.650;2023-08-30T06:48:53;14.30;99.90
46378;DHT22;32083;47.360;9.650;2023-08-30T06:51:19;14.30;99.90
46378;DHT22;32083;47.360;9.650;2023-08-30T06:53:45;14.30;99.90
46378;DHT22;32083;47.360;9.650;2023-08-30T06:56:12;14.40;99.90
46378;DHT22;32083;47.360;9.650;2023-08-30T06:58:39;14.40;99.90
46378;DHT22;32083;47.360;9.650;2023-08-30T07:01:05;14.40;99.90
46378;DHT22;32083;47.360;9.650;2023-08-30T07:03:31;14.40;99.90
46378;DHT22;32083;47.360;9.650;2023-08-30T07:05:57;14.40;99.90
46378;DHT22;32083;47.360;9.650;2023-08-30T07:08:23;14.40;99.90
46378;DHT22;32083;47.360;9.650;2023-08-30T07:10:49;14.40;99.90
46378;DHT22;32083;47.360;9.650;2023-08-30T07:13:15;14.50;99.90
46378;DHT22;32083;47.360;9.650;2023-08-30T07:15:41;14.60;99.90
46378;DHT22;32083;47.360;9.650;2023-08-30T07:18:08;14.60;99.90
46378;DHT22;32083;47.360;9.650;2023-08-30T07:20:34;14.70;99.90
46378;DHT22;32083;47.360;9.650;2023-08-30T07:23:02;14.70;99.90
46378;DHT22;32083;47.360;9.650;2023-08-30T07:25:30;14.80;99.90
46378;DHT22;32083;47.360;9.650;2023-08-30T07:27:58;14.90;99.90
46378;DHT22;32083;47.360;9.650;2023-08-30T07:30:24;14.90;99.90
46378;DHT22;32083;47.360;9.650;2023-08-30T07:32:50;15.00;99.90
46378;DHT22;32083;47.360;9.650;2023-08-30T07:35:16;15.00;99.90
46378;DHT22;32083;47.360;9.650;2023-08-30T07:37:42;15.20;99.90
46378;DHT22;32083;47.360;9.650;2023-08-30T07:40:09;15.40;99.90
46378;DHT22;32083;47.360;9.650;2023-08-30T07:42:35;15.60;99.90
46378;DHT22;32083;47.360;9.650;2023-08-30T07:45:01;15.50;99.90
46378;DHT22;32083;47.360;9.650;2023-08-30T07:47:27;15.80;99.90
46378;DHT22;32083;47.360;9.650;2023-08-30T07:49:53;15.90;99.90
46378;DHT22;32083;47.360;9.650;2023-08-30T07:52:19;15.70;99.90
46378;DHT22;32083;47.360;9.650;2023-08-30T07:54:44;15.60;99.90
46378;DHT22;32083;47.360;9.650;2023-08-30T07:57:10;15.70;99.90
46378;DHT22;32083;47.360;9.650;2023-08-30T07:59:37;15.60;99.90
46378;DHT22;32083;47.360;9.650;2023-08-30T08:02:04;15.70;99.90
46378;DHT22;32083;47.360;9.650;2023-08-30T08:04:32;15.60;99.90
46378;DHT22;32083;47.360;9.650;2023-08-30T08:06:59;15.70;99.90
46378;DHT22;32083;47.360;9.650;2023-08-30T08:09:25;15.80;99.90
46378;DHT22;32083;47.360;9.650;2023-08-30T08:11:51;16.00;99.90
46378;DHT22;32083;47.360;9.650;2023-08-30T08:14:17;16.20;99.90
46378;DHT22;32083;47.360;9.650;2023-08-30T08:16:43;16.20;99.90
46378;DHT22;32083;47.360;9.650;2023-08-30T08:19:09;16.30;99.90
46378;DHT22;32083;47.360;9.650;2023-08-30T08:21:35;16.40;99.90
46378;DHT22;32083;47.360;9.650;2023-08-30T08:24:01;16.60;99.90
46378;DHT22;32083;47.360;9.650;2023-08-30T08:26:27;16.60;99.90
46378;DHT22;32083;47.360;9.650;2023-08-30T08:28:56;16.60;99.90
46378;DHT22;32083;47.360;9.650;2023-08-30T08:31:22;16.80;99.90
46378;DHT22;32083;47.360;9.650;2023-08-30T08:34:08;16.80;99.90
46378;DHT22;32083;47.360;9.650;2023-08-30T08:36:36;16.90;99.90
46378;DHT22;32083;47.360;9.650;2023-08-30T08:39:02;17.00;99.90
46378;DHT22;32083;47.360;9.650;2023-08-30T08:41:42;16.90;99.90
46378;DHT22;32083;47.360;9.650;2023-08-30T08:44:09;16.80;99.90
46378;DHT22;32083;47.360;9.650;2023-08-30T08:46:39;16.90;99.90
46378;DHT22;32083;47.360;9.650;2023-08-30T08:49:15;17.00;99.90
46378;DHT22;32083;47.360;9.650;2023-08-30T08:51:43;17.10;99.90
46378;DHT22;32083;47.360;9.650;2023-08-30T08:54:10;17.10;99.90
46378;DHT22;32083;47.360;9.650;2023-08-30T08:56:37;17.20;99.90
46378;DHT22;32083;47.360;9.650;2023-08-30T08:59:03;17.20;99.90
46378;DHT22;32083;47.360;9.650;2023-08-30T09:01:31;17.30;99.90
46378;DHT22;32083;47.360;9.650;2023-08-30T09:03:59;17.40;99.90
46378;DHT22;32083;47.360;9.650;2023-08-30T09:06:25;17.10;99.90
46378;DHT22;32083;47.360;9.650;2023-08-30T09:08:51;17.00;99.90
46378;DHT22;32083;47.360;9.650;2023-08-30T09:11:17;16.80;99.90
46378;DHT22;32083;47.360;9.650;2023-08-30T09:13:43;16.80;99.90
46378;DHT22;32083;47.360;9.650;2023-08-30T09:16:16;16.80;99.30
46378;DHT22;32083;47.360;9.650;2023-08-30T09:18:42;16.80;99.90
46378;DHT22;32083;47.360;9.650;2023-08-30T09:21:09;17.00;99.90
46378;DHT22;32083;47.360;9.650;2023-08-30T09:23:35;17.10;99.40
46378;DHT22;32083;47.360;9.650;2023-08-30T09:26:02;17.20;99.50
46378;DHT22;32083;47.360;9.650;2023-08-30T09:28:28;17.30;99.60
46378;DHT22;32083;47.360;9.650;2023-08-30T09:30:56;17.40;99.60
46378;DHT22;32083;47.360;9.650;2023-08-30T09:33:29;17.50;99.90
46378;DHT22;32083;47.360;9.650;2023-08-30T09:35:55;17.50;99.00
46378;DHT22;32083;47.360;9.650;2023-08-30T09:38:21;17.50;98.60
46378;DHT22;32083;47.360;9.650;2023-08-30T09:40:47;17.50;98.30
46378;DHT22;32083;47.360;9.650;2023-08-30T09:43:13;17.40;98.10
46378;DHT22;32083;47.360;9.650;2023-08-30T09:45:40;17.40;98.40
46378;DHT22;32083;47.360;9.650;2023-08-30T09:48:07;17.40;98.60
46378;DHT22;32083;47.360;9.650;2023-08-30T09:50:34;17.50;98.60
46378;DHT22;32083;47.360;9.650;2023-08-30T09:53:06;17.50;99.00
46378;DHT22;32083;47.360;9.650;2023-08-30T09:55:33;17.50;97.70
46378;DHT22;32083;47.360;9.650;2023-08-30T09:58:03;17.50;98.00
46378;DHT22;32083;47.360;9.650;2023-08-30T10:00:31;17.50;98.30
46378;DHT22;32083;47.360;9.650;2023-08-30T10:02:59;17.60;99.20
46378;DHT22;32083;47.360;9.650;2023-08-30T10:05:26;17.70;98.70
46378;DHT22;32083;47.360;9.650;2023-08-30T10:07:56;17.70;98.60
46378;DHT22;32083;47.360;9.650;2023-08-30T10:10:23;17.70;98.10
46378;DHT22;32083;47.360;9.650;2023-08-30T10:12:50;17.70;98.50
46378;DHT22;32083;47.360;9.650;2023-08-30T10:15:17;17.70;99.00
46378;DHT22;32083;47.360;9.650;2023-08-30T10:17:46;17.80;97.20
46378;DHT22;32083;47.360;9.650;2023-08-30T10:20:12;17.80;96.80
46378;DHT22;32083;47.360;9.650;2023-08-30T10:22:40;17.70;96.50
46378;DHT22;32083;47.360;9.650;2023-08-30T10:25:12;17.70;96.60
46378;DHT22;32083;47.360;9.650;2023-08-30T10:27:45;17.80;96.90
46378;DHT22;32083;47.360;9.650;2023-08-30T10:30:12;17.80;97.30
46378;DHT22;32083;47.360;9.650;2023-08-30T10:32:43;17.90;96.40
46378;DHT22;32083;47.360;9.650;2023-08-30T10:35:17;17.90;96.00
46378;DHT22;32083;47.360;9.650;2023-08-30T10:37:54;17.80;96.90
46378;DHT22;32083;47.360;9.650;2023-08-30T10:40:21;17.80;96.90
46378;DHT22;32083;47.360;9.650;2023-08-30T10:43:02;17.90;95.70
46378;DHT22;32083;47.360;9.650;2023-08-30T10:45:28;17.90;95.80
46378;DHT22;32083;47.360;9.650;2023-08-30T10:47:57;17.90;95.30
46378;DHT22;32083;47.360;9.650;2023-08-30T10:50:33;18.00;95.60
46378;DHT22;32083;47.360;9.650;2023-08-30T10:53:00;18.10;95.80
46378;DHT22;32083;47.360;9.650;2023-08-30T10:55:26;18.20;96.30
46378;DHT22;32083;47.360;9.650;2023-08-30T10:58:02;18.30;96.00
46378;DHT22;32083;47.360;9.650;2023-08-30T11:00:29;18.30;95.10
46378;DHT22;32083;47.360;9.650;2023-08-30T11:02:56;18.30;95.50
46378;DHT22;32083;47.360;9.650;2023-08-30T11:05:24;18.30;94.90
46378;DHT22;32083;47.360;9.650;2023-08-30T11:07:51;18.40;95.40
46378;DHT22;32083;47.360;9.650;2023-08-30T11:10:18;18.40;95.10
46378;DHT22;32083;47.360;9.650;2023-08-30T11:12:45;18.50;95.10
46378;DHT22;32083;47.360;9.650;2023-08-30T11:15:12;18.50;94.10
46378;DHT22;32083;47.360;9.650;2023-08-30T11:17:42;18.60;94.80
46378;DHT22;32083;47.360;9.650;2023-08-30T11:20:12;18.70;94.80
46378;DHT22;32083;47.360;9.650;2023-08-30T11:22:43;18.60;94.60
46378;DHT22;32083;47.360;9.650;2023-08-30T11:25:10;18.60;95.20
46378;DHT22;32083;47.360;9.650;2023-08-30T11:27:37;18.70;96.10
46378;DHT22;32083;47.360;9.650;2023-08-30T11:30:08;18.90;95.80
46378;DHT22;32083;47.360;9.650;2023-08-30T11:32:43;18.80;95.10
46378;DHT22;32083;47.360;9.650;2023-08-30T11:35:09;18.70;96.00
46378;DHT22;32083;47.360;9.650;2023-08-30T11:37:35;18.70;95.40
46378;DHT22;32083;47.360;9.650;2023-08-30T11:40:02;18.70;96.10
46378;DHT22;32083;47.360;9.650;2023-08-30T11:42:30;18.80;96.00
46378;DHT22;32083;47.360;9.650;2023-08-30T11:44:58;18.90;96.90
46378;DHT22;32083;47.360;9.650;2023-08-30T11:47:25;19.10;95.50
46378;DHT22;32083;47.360;9.650;2023-08-30T11:50:00;19.10;95.40
46378;DHT22;32083;47.360;9.650;2023-08-30T11:52:27;19.10;95.00
46378;DHT22;32083;47.360;9.650;2023-08-30T11:54:54;19.00;94.00
46378;DHT22;32083;47.360;9.650;2023-08-30T11:57:20;19.10;94.50
46378;DHT22;32083;47.360;9.650;2023-08-30T11:59:46;19.10;94.20
46378;DHT22;32083;47.360;9.650;2023-08-30T12:02:14;19.30;94.90
46378;DHT22;32083;47.360;9.650;2023-08-30T12:04:44;19.30;94.90
46378;DHT22;32083;47.360;9.650;2023-08-30T12:07:24;19.50;94.80
46378;DHT22;32083;47.360;9.650;2023-08-30T12:09:50;19.40;93.60
46378;DHT22;32083;47.360;9.650;2023-08-30T12:12:16;19.30;93.60
46378;DHT22;32083;47.360;9.650;2023-08-30T12:14:41;19.40;93.80
46378;DHT22;32083;47.360;9.650;2023-08-30T12:17:09;19.30;93.90
46378;DHT22;32083;47.360;9.650;2023-08-30T12:19:37;19.30;93.50
46378;DHT22;32083;47.360;9.650;2023-08-30T12:22:06;19.00;92.90
46378;DHT22;32083;47.360;9.650;2023-08-30T12:24:43;19.10;92.90
46378;DHT22;32083;47.360;9.650;2023-08-30T12:27:09;19.10;91.80
46378;DHT22;32083;47.360;9.650;2023-08-30T12:29:35;19.20;91.70
46378;DHT22;32083;47.360;9.650;2023-08-30T12:32:01;19.20;92.80
46378;DHT22;32083;47.360;9.650;2023-08-30T12:34:27;19.30;93.20
46378;DHT22;32083;47.360;9.650;2023-08-30T12:36:53;19.20;93.30
46378;DHT22;32083;47.360;9.650;2023-08-30T12:39:19;19.10;92.30
46378;DHT22;32083;47.360;9.650;2023-08-30T12:41:45;19.10;93.90
46378;DHT22;32083;47.360;9.650;2023-08-30T12:44:11;19.10;93.90
46378;DHT22;32083;47.360;9.650;2023-08-30T12:46:37;19.20;94.30
46378;DHT22;32083;47.360;9.650;2023-08-30T12:49:03;19.20;92.90
46378;DHT22;32083;47.360;9.650;2023-08-30T12:51:29;19.20;93.50
46378;DHT22;32083;47.360;9.650;2023-08-30T12:53:56;19.10;93.70
46378;DHT22;32083;47.360;9.650;2023-08-30T12:56:22;19.10;92.00
46378;DHT22;32083;47.360;9.650;2023-08-30T12:58:48;19.10;94.10
46378;DHT22;32083;47.360;9.650;2023-08-30T13:01:14;19.00;92.20
46378;DHT22;32083;47.360;9.650;2023-08-30T13:03:39;18.90;92.90
46378;DHT22;32083;47.360;9.650;2023-08-30T13:06:05;18.90;92.90
46378;DHT22;32083;47.360;9.650;2023-08-30T13:08:31;18.90;92.80
46378;DHT22;32083;47.360;9.650;2023-08-30T13:11:00;19.10;92.50
46378;DHT22;32083;47.360;9.650;2023-08-30T13:13:26;19.10;93.40
46378;DHT22;32083;47.360;9.650;2023-08-30T13:15:52;19.10;93.10
46378;DHT22;32083;47.360;9.650;2023-08-30T13:18:17;19.20;93.90
46378;DHT22;32083;47.360;9.650;2023-08-30T13:20:43;19.20;93.00
46378;DHT22;32083;47.360;9.650;2023-08-30T13:23:10;19.20;93.10
46378;DHT22;32083;47.360;9.650;2023-08-30T13:25:40;19.20;92.30
46378;DHT22;32083;47.360;9.650;2023-08-30T13:28:07;19.20;92.50
46378;DHT22;32083;47.360;9.650;2023-08-30T13:30:33;19.10;92.50
46378;DHT22;32083;47.360;9.650;2023-08-30T13:32:59;19.00;92.50
46378;DHT22;32083;47.360;9.650;2023-08-30T13:35:25;19.00;92.00
46378;DHT22;32083;47.360;9.650;2023-08-30T13:37:51;19.00;93.00
46378;DHT22;32083;47.360;9.650;2023-08-30T13:40:17;19.00;92.30
46378;DHT22;32083;47.360;9.650;2023-08-30T13:42:43;19.10;93.00
46378;DHT22;32083;47.360;9.650;2023-08-30T13:45:09;19.30;92.70
46378;DHT22;32083;47.360;9.650;2023-08-30T13:47:35;19.30;92.70
46378;DHT22;32083;47.360;9.650;2023-08-30T13:50:01;19.40;92.30
46378;DHT22;32083;47.360;9.650;2023-08-30T13:52:27;19.40;92.10
46378;DHT22;32083;47.360;9.650;2023-08-30T13:54:55;19.40;92.90
46378;DHT22;32083;47.360;9.650;2023-08-30T13:57:22;19.50;93.20
46378;DHT22;32083;47.360;9.650;2023-08-30T13:59:48;19.60;92.60
46378;DHT22;32083;47.360;9.650;2023-08-30T14:02:14;19.70;92.80
46378;DHT22;32083;47.360;9.650;2023-08-30T14:04:40;19.70;91.30
46378;DHT22;32083;47.360;9.650;2023-08-30T14:07:05;19.60;91.70
46378;DHT22;32083;47.360;9.650;2023-08-30T14:09:31;19.40;91.80
46378;DHT22;32083;47.360;9.650;2023-08-30T14:11:57;19.40;92.10
46378;DHT22;32083;47.360;9.650;2023-08-30T14:14:23;19.50;92.70
46378;DHT22;32083;47.360;9.650;2023-08-30T14:16:49;19.60;91.00
46378;DHT22;32083;47.360;9.650;2023-08-30T14:19:16;19.80;92.40
46378;DHT22;32083;47.360;9.650;2023-08-30T14:21:42;20.10;92.50
46378;DHT22;32083;47.360;9.650;2023-08-30T14:24:08;20.30;90.90
46378;DHT22;32083;47.360;9.650;2023-08-30T14:26:34;20.40;92.30
46378;DHT22;32083;47.360;9.650;2023-08-30T14:29:00;20.40;91.30
46378;DHT22;32083;47.360;9.650;2023-08-30T14:31:26;20.10;90.00
46378;DHT22;32083;47.360;9.650;2023-08-30T14:33:55;20.00;91.30
46378;DHT22;32083;47.360;9.650;2023-08-30T14:36:24;19.80;92.10
46378;DHT22;32083;47.360;9.650;2023-08-30T14:38:50;19.90;92.40
46378;DHT22;32083;47.360;9.650;2023-08-30T14:41:16;19.80;91.90
46378;DHT22;32083;47.360;9.650;2023-08-30T14:43:43;19.90;91.50
46378;DHT22;32083;47.360;9.650;2023-08-30T14:46:10;20.10;92.20
46378;DHT22;32083;47.360;9.650;2023-08-30T14:48:36;20.30;93.40
46378;DHT22;32083;47.360;9.650;2023-08-30T14:51:05;20.40;90.70
46378;DHT22;32083;47.360;9.650;2023-08-30T14:53:32;20.50;90.70
46378;DHT22;32083;47.360;9.650;2023-08-30T14:55:58;20.60;92.60
46378;DHT22;32083;47.360;9.650;2023-08-30T14:58:24;20.70;93.50
46378;DHT22;32083;47.360;9.650;2023-08-30T15:00:50;20.60;92.70
46378;DHT22;32083;47.360;9.650;2023-08-30T15:03:16;20.50;91.40
46378;DHT22;32083;47.360;9.650;2023-08-30T15:05:42;20.60;92.90
46378;DHT22;32083;47.360;9.650;2023-08-30T15:08:08;20.80;92.70
46378;DHT22;32083;47.360;9.650;2023-08-30T15:10:34;20.80;91.30
46378;DHT22;32083;47.360;9.650;2023-08-30T15:13:00;20.80;92.80
46378;DHT22;32083;47.360;9.650;2023-08-30T15:15:26;20.80;92.60
46378;DHT22;32083;47.360;9.650;2023-08-30T15:17:52;20.70;91.70
46378;DHT22;32083;47.360;9.650;2023-08-30T15:20:18;20.70;92.00
46378;DHT22;32083;47.360;9.650;2023-08-30T15:22:44;20.60;91.90
46378;DHT22;32083;47.360;9.650;2023-08-30T15:25:10;20.60;91.20
46378;DHT22;32083;47.360;9.650;2023-08-30T15:27:36;20.60;90.90
46378;DHT22;32083;47.360;9.650;2023-08-30T15:30:02;20.60;91.60
46378;DHT22;32083;47.360;9.650;2023-08-30T15:32:29;20.70;92.90
46378;DHT22;32083;47.360;9.650;2023-08-30T15:34:57;20.80;93.40
46378;DHT22;32083;47.360;9.650;2023-08-30T15:37:23;20.90;93.70
46378;DHT22;32083;47.360;9.650;2023-08-30T15:39:59;20.90;93.50
46378;DHT22;32083;47.360;9.650;2023-08-30T15:42:25;21.00;93.50
46378;DHT22;32083;47.360;9.650;2023-08-30T15:44:50;20.90;91.20
46378;DHT22;32083;47.360;9.650;2023-08-30T15:47:16;20.70;89.50
46378;DHT22;32083;47.360;9.650;2023-08-30T15:49:42;20.60;92.80
46378;DHT22;32083;47.360;9.650;2023-08-30T15:52:09;20.60;92.50
46378;DHT22;32083;47.360;9.650;2023-08-30T15:54:35;20.60;92.90
46378;DHT22;32083;47.360;9.650;2023-08-30T15:57:00;20.50;92.90
46378;DHT22;32083;47.360;9.650;2023-08-30T15:59:26;20.40;92.80
46378;DHT22;32083;47.360;9.650;2023-08-30T16:01:52;20.20;92.80
46378;DHT22;32083;47.360;9.650;2023-08-30T16:04:19;20.20;92.90
46378;DHT22;32083;47.360;9.650;2023-08-30T16:06:45;20.10;93.50
46378;DHT22;32083;47.360;9.650;2023-08-30T16:09:12;20.00;93.60
46378;DHT22;32083;47.360;9.650;2023-08-30T16:11:38;20.00;94.20
46378;DHT22;32083;47.360;9.650;2023-08-30T16:14:04;19.90;94.30
46378;DHT22;32083;47.360;9.650;2023-08-30T16:16:30;19.80;94.00
46378;DHT22;32083;47.360;9.650;2023-08-30T16:18:56;19.80;94.40
46378;DHT22;32083;47.360;9.650;2023-08-30T16:21:22;19.80;94.00
46378;DHT22;32083;47.360;9.650;2023-08-30T16:23:47;19.80;93.70
46378;DHT22;32083;47.360;9.650;2023-08-30T16:26:13;19.90;94.30
46378;DHT22;32083;47.360;9.650;2023-08-30T16:28:39;19.90;94.10
46378;DHT22;32083;47.360;9.650;2023-08-30T16:31:06;19.90;93.60
46378;DHT22;32083;47.360;9.650;2023-08-30T16:33:32;20.00;93.60
46378;DHT22;32083;47.360;9.650;2023-08-30T16:36:02;19.90;94.00
46378;DHT22;32083;47.360;9.650;2023-08-30T16:38:28;19.90;93.70
46378;DHT22;32083;47.360;9.650;2023-08-30T16:40:55;19.80;94.00
46378;DHT22;32083;47.360;9.650;2023-08-30T16:43:28;19.80;94.80
46378;DHT22;32083;47.360;9.650;2023-08-30T16:45:54;19.80;95.40
46378;DHT22;32083;47.360;9.650;2023-08-30T16:48:20;19.70;95.10
46378;DHT22;32083;47.360;9.650;2023-08-30T16:50:46;19.60;95.10
46378;DHT22;32083;47.360;9.650;2023-08-30T16:53:12;19.60;94.30
46378;DHT22;32083;47.360;9.650;2023-08-30T16:55:38;19.50;94.10
46378;DHT22;32083;47.360;9.650;2023-08-30T16:58:04;19.50;95.00
46378;DHT22;32083;47.360;9.650;2023-08-30T17:00:30;19.40;95.60
46378;DHT22;32083;47.360;9.650;2023-08-30T17:02:57;19.40;95.70
46378;DHT22;32083;47.360;9.650;2023-08-30T17:05:25;19.30;95.90
46378;DHT22;32083;47.360;9.650;2023-08-30T17:07:54;19.20;95.70
46378;DHT22;32083;47.360;9.650;2023-08-30T17:10:20;19.20;96.30
46378;DHT22;32083;47.360;9.650;2023-08-30T17:12:49;19.10;96.10
46378;DHT22;32083;47.360;9.650;2023-08-30T17:15:18;19.00;95.80
46378;DHT22;32083;47.360;9.650;2023-08-30T17:17:44;19.10;96.40
46378;DHT22;32083;47.360;9.650;2023-08-30T17:20:10;19.10;96.70
46378;DHT22;32083;47.360;9.650;2023-08-30T17:22:36;19.00;96.60
46378;DHT22;32083;47.360;9.650;2023-08-30T17:25:02;19.00;96.50
46378;DHT22;32083;47.360;9.650;2023-08-30T17:27:28;19.00;96.60
46378;DHT22;32083;47.360;9.650;2023-08-30T17:29:54;18.90;96.10
46378;DHT22;32083;47.360;9.650;2023-08-30T17:32:20;18.90;96.60
46378;DHT22;32083;47.360;9.650;2023-08-30T17:34:46;18.80;96.80
46378;DHT22;32083;47.360;9.650;2023-08-30T17:37:14;18.80;96.90
46378;DHT22;32083;47.360;9.650;2023-08-30T17:39:40;18.80;97.00
46378;DHT22;32083;47.360;9.650;2023-08-30T17:42:06;18.80;96.80
46378;DHT22;32083;47.360;9.650;2023-08-30T17:44:33;18.80;96.80
46378;DHT22;32083;47.360;9.650;2023-08-30T17:46:59;18.70;96.80
46378;DHT22;32083;47.360;9.650;2023-08-30T17:49:25;18.70;96.90
46378;DHT22;32083;47.360;9.650;2023-08-30T17:51:52;18.70;97.20
46378;DHT22;32083;47.360;9.650;2023-08-30T17:54:18;18.60;97.10
46378;DHT22;32083;47.360;9.650;2023-08-30T17:56:44;18.60;97.50
46378;DHT22;32083;47.360;9.650;2023-08-30T17:59:10;18.60;97.50
46378;DHT22;32083;47.360;9.650;2023-08-30T18:01:36;18.50;97.60
46378;DHT22;32083;47.360;9.650;2023-08-30T18:04:02;18.50;97.60
46378;DHT22;32083;47.360;9.650;2023-08-30T18:06:30;18.50;97.50
46378;DHT22;32083;47.360;9.650;2023-08-30T18:08:56;18.40;97.30
46378;DHT22;32083;47.360;9.650;2023-08-30T18:11:23;18.40;97.60
46378;DHT22;32083;47.360;9.650;2023-08-30T18:13:49;18.40;98.00
46378;DHT22;32083;47.360;9.650;2023-08-30T18:16:20;18.30;98.00
46378;DHT22;32083;47.360;9.650;2023-08-30T18:18:46;18.30;98.10
46378;DHT22;32083;47.360;9.650;2023-08-30T18:21:13;18.20;98.00
46378;DHT22;32083;47.360;9.650;2023-08-30T18:24:10;18.20;98.00
46378;DHT22;32083;47.360;9.650;2023-08-30T18:26:37;18.20;97.90
46378;DHT22;32083;47.360;9.650;2023-08-30T18:29:03;18.20;97.90
46378;DHT22;32083;47.360;9.650;2023-08-30T18:31:31;18.10;98.10
46378;DHT22;32083;47.360;9.650;2023-08-30T18:33:58;18.10;98.00
46378;DHT22;32083;47.360;9.650;2023-08-30T18:36:27;18.10;98.10
46378;DHT22;32083;47.360;9.650;2023-08-30T18:38:54;18.10;98.00
46378;DHT22;32083;47.360;9.650;2023-08-30T18:41:20;18.00;98.10
46378;DHT22;32083;47.360;9.650;2023-08-30T18:43:46;18.00;98.30
46378;DHT22;32083;47.360;9.650;2023-08-30T18:46:12;18.00;98.30
46378;DHT22;32083;47.360;9.650;2023-08-30T18:48:44;18.00;98.10
46378;DHT22;32083;47.360;9.650;2023-08-30T18:51:11;18.00;98.30
46378;DHT22;32083;47.360;9.650;2023-08-30T18:53:37;18.00;98.20
46378;DHT22;32083;47.360;9.650;2023-08-30T18:56:04;17.90;98.30
46378;DHT22;32083;47.360;9.650;2023-08-30T18:58:30;17.90;98.30
46378;DHT22;32083;47.360;9.650;2023-08-30T19:00:58;17.90;98.70
46378;DHT22;32083;47.360;9.650;2023-08-30T19:03:24;17.90;98.60
46378;DHT22;32083;47.360;9.650;2023-08-30T19:05:50;17.80;98.60
46378;DHT22;32083;47.360;9.650;2023-08-30T19:08:18;17.80;98.80
46378;DHT22;32083;47.360;9.650;2023-08-30T19:10:44;17.80;98.80
46378;DHT22;32083;47.360;9.650;2023-08-30T19:13:12;17.80;98.70
46378;DHT22;32083;47.360;9.650;2023-08-30T19:15:41;17.80;98.90
46378;DHT22;32083;47.360;9.650;2023-08-30T19:18:08;17.80;99.10
46378;DHT22;32083;47.360;9.650;2023-08-30T19:20:34;17.70;99.10
46378;DHT22;32083;47.360;9.650;2023-08-30T19:23:00;17.70;99.20
46378;DHT22;32083;47.360;9.650;2023-08-30T19:25:30;17.70;99.60
46378;DHT22;32083;47.360;9.650;2023-08-30T19:27:56;17.70;99.30
46378;DHT22;32083;47.360;9.650;2023-08-30T19:30:21;17.60;99.30